Weather at Grenchen Airport

Public forecast

Using degrees Celsius for public forecast. Weather courtesy of forecast.io.

Current aviation weather report (METAR) for Grenchen Airport

Retrieved 2021/10/15 22:20 UTC (20 minutes ago):

LSZG 152220Z AUTO 02002KT 9999 NSC 05/04 Q1019

Closest aviation forecast (TAF) to Grenchen Airport

Closest forecast is EuroAirport Basel-Mulhouse-Freiburg Airport, 24.9 nm (46.2 km) N. Retrieved 2021/10/15 18:21 UTC (4 hours ago):

TAF LFSB 151700Z 1518/1618 VRB04KT CAVOK TEMPO 1523/1609 3000 BR BKN003 PROB40 TEMPO 1600/1608 0400 FG VV/// BECMG 1608/1610 35005KT